sensor_id;sensor_type;location;lat;lon;timestamp;P1;durP1;ratioP1;P2;durP2;ratioP2
13335;SDS011;6737;51.480;11.962;2022-09-12T00:01:31;10.20;;;7.80;;
13335;SDS011;6737;51.480;11.962;2022-09-12T00:03:58;9.80;;;8.07;;
13335;SDS011;6737;51.480;11.962;2022-09-12T00:06:30;10.90;;;8.00;;
13335;SDS011;6737;51.480;11.962;2022-09-12T00:08:59;10.70;;;7.80;;
13335;SDS011;6737;51.480;11.962;2022-09-12T00:11:27;9.70;;;7.80;;
13335;SDS011;6737;51.480;11.962;2022-09-12T00:13:55;9.63;;;7.80;;
13335;SDS011;6737;51.480;11.962;2022-09-12T00:16:23;10.93;;;7.47;;
13335;SDS011;6737;51.480;11.962;2022-09-12T00:18:50;11.40;;;7.40;;
13335;SDS011;6737;51.480;11.962;2022-09-12T00:21:17;9.80;;;7.40;;
13335;SDS011;6737;51.480;11.962;2022-09-12T00:23:44;10.67;;;7.70;;
13335;SDS011;6737;51.480;11.962;2022-09-12T00:26:11;10.07;;;7.80;;
13335;SDS011;6737;51.480;11.962;2022-09-12T00:28:38;10.10;;;7.63;;
13335;SDS011;6737;51.480;11.962;2022-09-12T00:31:06;9.30;;;7.40;;
13335;SDS011;6737;51.480;11.962;2022-09-12T00:33:34;10.07;;;7.30;;
13335;SDS011;6737;51.480;11.962;2022-09-12T00:36:20;9.53;;;7.63;;
13335;SDS011;6737;51.480;11.962;2022-09-12T00:38:48;10.57;;;8.23;;
13335;SDS011;6737;51.480;11.962;2022-09-12T00:43:56;9.53;;;8.20;;
13335;SDS011;6737;51.480;11.962;2022-09-12T00:49:00;12.43;;;8.20;;
13335;SDS011;6737;51.480;11.962;2022-09-12T00:51:49;11.00;;;8.07;;
13335;SDS011;6737;51.480;11.962;2022-09-12T00:54:21;12.23;;;8.20;;
13335;SDS011;6737;51.480;11.962;2022-09-12T00:56:52;11.50;;;8.03;;
13335;SDS011;6737;51.480;11.962;2022-09-12T00:59:21;8.40;;;7.50;;
13335;SDS011;6737;51.480;11.962;2022-09-12T01:01:51;10.13;;;7.90;;
13335;SDS011;6737;51.480;11.962;2022-09-12T01:04:18;8.20;;;7.40;;
13335;SDS011;6737;51.480;11.962;2022-09-12T01:06:46;10.13;;;7.20;;
13335;SDS011;6737;51.480;11.962;2022-09-12T01:09:16;11.43;;;7.63;;
13335;SDS011;6737;51.480;11.962;2022-09-12T01:11:44;9.13;;;7.57;;
13335;SDS011;6737;51.480;11.962;2022-09-12T01:14:11;11.27;;;7.20;;
13335;SDS011;6737;51.480;11.962;2022-09-12T01:16:38;9.20;;;7.37;;
13335;SDS011;6737;51.480;11.962;2022-09-12T01:27:27;9.13;;;7.17;;
13335;SDS011;6737;51.480;11.962;2022-09-12T01:30:23;10.47;;;7.70;;
13335;SDS011;6737;51.480;11.962;2022-09-12T01:41:32;9.00;;;7.33;;
13335;SDS011;6737;51.480;11.962;2022-09-12T01:43:35;10.23;;;7.80;;
13335;SDS011;6737;51.480;11.962;2022-09-12T01:46:19;9.17;;;7.53;;
13335;SDS011;6737;51.480;11.962;2022-09-12T01:49:24;10.87;;;8.03;;
13335;SDS011;6737;51.480;11.962;2022-09-12T01:54:58;9.30;;;8.03;;
13335;SDS011;6737;51.480;11.962;2022-09-12T01:57:36;12.03;;;8.30;;
13335;SDS011;6737;51.480;11.962;2022-09-12T02:00:10;9.60;;;8.20;;
13335;SDS011;6737;51.480;11.962;2022-09-12T02:02:38;11.07;;;8.40;;
13335;SDS011;6737;51.480;11.962;2022-09-12T02:07:46;10.93;;;8.60;;
13335;SDS011;6737;51.480;11.962;2022-09-12T02:12:45;11.33;;;8.57;;
13335;SDS011;6737;51.480;11.962;2022-09-12T02:15:13;12.50;;;9.17;;
13335;SDS011;6737;51.480;11.962;2022-09-12T02:17:42;10.63;;;8.37;;
13335;SDS011;6737;51.480;11.962;2022-09-12T02:20:13;10.43;;;8.33;;
13335;SDS011;6737;51.480;11.962;2022-09-12T02:22:43;12.27;;;8.83;;
13335;SDS011;6737;51.480;11.962;2022-09-12T02:25:12;10.53;;;8.63;;
13335;SDS011;6737;51.480;11.962;2022-09-12T02:27:49;12.03;;;8.50;;
13335;SDS011;6737;51.480;11.962;2022-09-12T02:30:40;9.67;;;7.50;;
13335;SDS011;6737;51.480;11.962;2022-09-12T02:33:21;11.13;;;8.13;;
13335;SDS011;6737;51.480;11.962;2022-09-12T02:36:03;9.80;;;7.87;;
13335;SDS011;6737;51.480;11.962;2022-09-12T02:38:51;11.57;;;8.47;;
13335;SDS011;6737;51.480;11.962;2022-09-12T02:41:19;11.23;;;8.57;;
13335;SDS011;6737;51.480;11.962;2022-09-12T02:43:46;11.40;;;8.97;;
13335;SDS011;6737;51.480;11.962;2022-09-12T02:46:18;13.40;;;9.37;;
13335;SDS011;6737;51.480;11.962;2022-09-12T02:48:51;12.47;;;8.83;;
13335;SDS011;6737;51.480;11.962;2022-09-12T02:51:18;12.17;;;9.70;;
13335;SDS011;6737;51.480;11.962;2022-09-12T02:53:45;11.70;;;8.47;;
13335;SDS011;6737;51.480;11.962;2022-09-12T02:56:13;11.80;;;8.53;;
13335;SDS011;6737;51.480;11.962;2022-09-12T02:58:50;10.03;;;8.33;;
13335;SDS011;6737;51.480;11.962;2022-09-12T03:04:09;14.37;;;9.13;;
13335;SDS011;6737;51.480;11.962;2022-09-12T03:09:48;12.87;;;9.03;;
13335;SDS011;6737;51.480;11.962;2022-09-12T03:12:19;14.63;;;9.23;;
13335;SDS011;6737;51.480;11.962;2022-09-12T03:17:37;12.03;;;8.87;;
13335;SDS011;6737;51.480;11.962;2022-09-12T03:23:08;10.30;;;8.20;;
13335;SDS011;6737;51.480;11.962;2022-09-12T03:25:47;10.53;;;8.53;;
13335;SDS011;6737;51.480;11.962;2022-09-12T03:28:33;10.80;;;8.70;;
13335;SDS011;6737;51.480;11.962;2022-09-12T03:31:09;10.40;;;8.03;;
13335;SDS011;6737;51.480;11.962;2022-09-12T03:33:40;9.70;;;8.47;;
13335;SDS011;6737;51.480;11.962;2022-09-12T03:36:09;12.07;;;8.40;;
13335;SDS011;6737;51.480;11.962;2022-09-12T03:38:49;10.67;;;7.77;;
13335;SDS011;6737;51.480;11.962;2022-09-12T03:41:15;12.70;;;8.50;;
13335;SDS011;6737;51.480;11.962;2022-09-12T03:43:42;8.87;;;7.73;;
13335;SDS011;6737;51.480;11.962;2022-09-12T03:46:08;10.47;;;7.70;;
13335;SDS011;6737;51.480;11.962;2022-09-12T03:48:34;10.70;;;7.97;;
13335;SDS011;6737;51.480;11.962;2022-09-12T03:51:00;11.00;;;8.63;;
13335;SDS011;6737;51.480;11.962;2022-09-12T03:53:28;9.97;;;8.37;;
13335;SDS011;6737;51.480;11.962;2022-09-12T03:55:55;11.60;;;8.57;;
13335;SDS011;6737;51.480;11.962;2022-09-12T03:58:22;9.83;;;8.20;;
13335;SDS011;6737;51.480;11.962;2022-09-12T04:00:48;12.20;;;9.00;;
13335;SDS011;6737;51.480;11.962;2022-09-12T04:03:14;14.67;;;8.90;;
13335;SDS011;6737;51.480;11.962;2022-09-12T04:05:39;12.97;;;9.73;;
13335;SDS011;6737;51.480;11.962;2022-09-12T04:08:05;12.57;;;9.27;;
13335;SDS011;6737;51.480;11.962;2022-09-12T04:10:31;13.27;;;9.47;;
13335;SDS011;6737;51.480;11.962;2022-09-12T04:12:57;13.67;;;10.10;;
13335;SDS011;6737;51.480;11.962;2022-09-12T04:15:23;12.03;;;8.50;;
13335;SDS011;6737;51.480;11.962;2022-09-12T04:17:49;8.60;;;7.30;;
13335;SDS011;6737;51.480;11.962;2022-09-12T04:20:14;12.23;;;8.47;;
13335;SDS011;6737;51.480;11.962;2022-09-12T04:22:40;12.03;;;8.53;;
13335;SDS011;6737;51.480;11.962;2022-09-12T04:25:06;9.23;;;7.67;;
13335;SDS011;6737;51.480;11.962;2022-09-12T04:27:33;12.70;;;8.57;;
13335;SDS011;6737;51.480;11.962;2022-09-12T04:29:59;11.93;;;8.40;;
13335;SDS011;6737;51.480;11.962;2022-09-12T04:32:26;12.43;;;8.90;;
13335;SDS011;6737;51.480;11.962;2022-09-12T04:34:53;10.57;;;8.00;;
13335;SDS011;6737;51.480;11.962;2022-09-12T04:37:19;10.17;;;7.67;;
13335;SDS011;6737;51.480;11.962;2022-09-12T04:39:45;11.87;;;8.03;;
13335;SDS011;6737;51.480;11.962;2022-09-12T04:42:13;12.00;;;8.33;;
13335;SDS011;6737;51.480;11.962;2022-09-12T04:44:39;13.33;;;8.77;;
13335;SDS011;6737;51.480;11.962;2022-09-12T04:47:05;10.90;;;8.20;;
13335;SDS011;6737;51.480;11.962;2022-09-12T04:49:30;11.63;;;8.87;;
13335;SDS011;6737;51.480;11.962;2022-09-12T04:51:56;11.50;;;8.33;;
13335;SDS011;6737;51.480;11.962;2022-09-12T04:54:22;12.23;;;9.00;;
13335;SDS011;6737;51.480;11.962;2022-09-12T04:56:48;13.77;;;9.83;;
13335;SDS011;6737;51.480;11.962;2022-09-12T04:59:15;13.27;;;10.27;;
13335;SDS011;6737;51.480;11.962;2022-09-12T05:01:43;12.80;;;9.07;;
13335;SDS011;6737;51.480;11.962;2022-09-12T05:04:10;17.90;;;10.30;;
13335;SDS011;6737;51.480;11.962;2022-09-12T05:06:37;16.07;;;10.80;;
13335;SDS011;6737;51.480;11.962;2022-09-12T05:09:05;14.63;;;10.50;;
13335;SDS011;6737;51.480;11.962;2022-09-12T05:11:33;15.27;;;11.90;;
13335;SDS011;6737;51.480;11.962;2022-09-12T05:14:02;16.87;;;12.23;;
13335;SDS011;6737;51.480;11.962;2022-09-12T05:16:28;19.87;;;12.47;;
13335;SDS011;6737;51.480;11.962;2022-09-12T05:18:55;15.67;;;12.27;;
13335;SDS011;6737;51.480;11.962;2022-09-12T05:21:22;17.90;;;11.93;;
13335;SDS011;6737;51.480;11.962;2022-09-12T05:23:52;17.30;;;12.00;;
13335;SDS011;6737;51.480;11.962;2022-09-12T05:26:19;16.73;;;11.50;;
13335;SDS011;6737;51.480;11.962;2022-09-12T05:28:46;18.47;;;12.87;;
13335;SDS011;6737;51.480;11.962;2022-09-12T05:31:14;18.00;;;12.83;;
13335;SDS011;6737;51.480;11.962;2022-09-12T05:33:43;18.33;;;12.33;;
13335;SDS011;6737;51.480;11.962;2022-09-12T05:36:12;18.10;;;13.47;;
13335;SDS011;6737;51.480;11.962;2022-09-12T05:38:40;17.97;;;13.63;;
13335;SDS011;6737;51.480;11.962;2022-09-12T05:41:06;19.97;;;14.00;;
13335;SDS011;6737;51.480;11.962;2022-09-12T05:43:38;20.43;;;13.80;;
13335;SDS011;6737;51.480;11.962;2022-09-12T05:46:10;22.43;;;14.33;;
13335;SDS011;6737;51.480;11.962;2022-09-12T05:48:41;20.40;;;15.43;;
13335;SDS011;6737;51.480;11.962;2022-09-12T05:51:10;22.60;;;14.33;;
13335;SDS011;6737;51.480;11.962;2022-09-12T05:53:45;21.73;;;15.23;;
13335;SDS011;6737;51.480;11.962;2022-09-12T05:56:14;20.40;;;15.20;;
13335;SDS011;6737;51.480;11.962;2022-09-12T05:58:43;19.63;;;14.20;;
13335;SDS011;6737;51.480;11.962;2022-09-12T06:01:12;19.57;;;14.17;;
13335;SDS011;6737;51.480;11.962;2022-09-12T06:03:43;22.83;;;15.10;;
13335;SDS011;6737;51.480;11.962;2022-09-12T06:06:11;22.03;;;14.67;;
13335;SDS011;6737;51.480;11.962;2022-09-12T06:08:38;20.30;;;14.33;;
13335;SDS011;6737;51.480;11.962;2022-09-12T06:11:06;20.67;;;15.07;;
13335;SDS011;6737;51.480;11.962;2022-09-12T06:13:34;22.80;;;15.10;;
13335;SDS011;6737;51.480;11.962;2022-09-12T06:16:05;21.30;;;14.47;;
13335;SDS011;6737;51.480;11.962;2022-09-12T06:18:33;21.60;;;14.53;;
13335;SDS011;6737;51.480;11.962;2022-09-12T06:21:03;20.73;;;14.63;;
13335;SDS011;6737;51.480;11.962;2022-09-12T06:23:30;22.70;;;14.97;;
13335;SDS011;6737;51.480;11.962;2022-09-12T06:25:56;21.73;;;14.53;;
13335;SDS011;6737;51.480;11.962;2022-09-12T06:28:22;23.93;;;15.07;;
13335;SDS011;6737;51.480;11.962;2022-09-12T06:30:48;20.60;;;14.37;;
13335;SDS011;6737;51.480;11.962;2022-09-12T06:33:14;21.73;;;14.77;;
13335;SDS011;6737;51.480;11.962;2022-09-12T06:35:40;19.47;;;14.17;;
13335;SDS011;6737;51.480;11.962;2022-09-12T06:38:07;20.50;;;14.30;;
13335;SDS011;6737;51.480;11.962;2022-09-12T06:40:33;20.70;;;14.27;;
13335;SDS011;6737;51.480;11.962;2022-09-12T06:43:05;20.70;;;14.93;;
13335;SDS011;6737;51.480;11.962;2022-09-12T06:45:31;19.77;;;13.90;;
13335;SDS011;6737;51.480;11.962;2022-09-12T06:47:57;18.93;;;13.90;;
13335;SDS011;6737;51.480;11.962;2022-09-12T06:50:22;19.67;;;14.20;;
13335;SDS011;6737;51.480;11.962;2022-09-12T06:52:48;18.40;;;12.87;;
13335;SDS011;6737;51.480;11.962;2022-09-12T06:55:15;17.33;;;12.63;;
13335;SDS011;6737;51.480;11.962;2022-09-12T06:57:41;19.03;;;13.43;;
13335;SDS011;6737;51.480;11.962;2022-09-12T07:00:08;20.97;;;12.47;;
13335;SDS011;6737;51.480;11.962;2022-09-12T07:02:34;17.43;;;12.97;;
13335;SDS011;6737;51.480;11.962;2022-09-12T07:05:00;17.33;;;13.00;;
13335;SDS011;6737;51.480;11.962;2022-09-12T07:07:26;17.70;;;12.73;;
13335;SDS011;6737;51.480;11.962;2022-09-12T07:09:52;17.00;;;12.90;;
13335;SDS011;6737;51.480;11.962;2022-09-12T07:12:18;14.93;;;11.97;;
13335;SDS011;6737;51.480;11.962;2022-09-12T07:14:44;16.87;;;11.93;;
13335;SDS011;6737;51.480;11.962;2022-09-12T07:17:09;18.40;;;12.03;;
13335;SDS011;6737;51.480;11.962;2022-09-12T07:19:36;17.47;;;12.77;;
13335;SDS011;6737;51.480;11.962;2022-09-12T07:22:02;15.97;;;11.80;;
13335;SDS011;6737;51.480;11.962;2022-09-12T07:24:28;19.17;;;12.70;;
13335;SDS011;6737;51.480;11.962;2022-09-12T07:26:54;17.80;;;12.00;;
13335;SDS011;6737;51.480;11.962;2022-09-12T07:29:20;16.23;;;11.97;;
13335;SDS011;6737;51.480;11.962;2022-09-12T07:31:46;16.00;;;11.57;;
13335;SDS011;6737;51.480;11.962;2022-09-12T07:34:11;17.90;;;11.20;;
13335;SDS011;6737;51.480;11.962;2022-09-12T07:36:38;17.87;;;11.93;;
13335;SDS011;6737;51.480;11.962;2022-09-12T07:39:03;18.27;;;12.30;;
13335;SDS011;6737;51.480;11.962;2022-09-12T07:41:30;18.07;;;11.80;;
13335;SDS011;6737;51.480;11.962;2022-09-12T07:43:58;17.03;;;11.33;;
13335;SDS011;6737;51.480;11.962;2022-09-12T07:46:26;17.97;;;12.00;;
13335;SDS011;6737;51.480;11.962;2022-09-12T07:48:54;16.60;;;10.93;;
13335;SDS011;6737;51.480;11.962;2022-09-12T07:51:22;18.10;;;11.83;;
13335;SDS011;6737;51.480;11.962;2022-09-12T07:53:49;16.77;;;11.20;;
13335;SDS011;6737;51.480;11.962;2022-09-12T07:56:16;16.07;;;11.40;;
13335;SDS011;6737;51.480;11.962;2022-09-12T07:58:44;15.37;;;10.37;;
13335;SDS011;6737;51.480;11.962;2022-09-12T08:01:13;14.10;;;10.30;;
13335;SDS011;6737;51.480;11.962;2022-09-12T08:03:42;15.35;;;10.90;;
13335;SDS011;6737;51.480;11.962;2022-09-12T08:06:10;15.50;;;10.52;;
13335;SDS011;6737;51.480;11.962;2022-09-12T08:08:49;15.05;;;10.93;;
13335;SDS011;6737;51.480;11.962;2022-09-12T08:11:17;15.10;;;11.05;;
13335;SDS011;6737;51.480;11.962;2022-09-12T08:13:45;14.60;;;10.73;;
13335;SDS011;6737;51.480;11.962;2022-09-12T08:16:12;14.38;;;9.65;;
13335;SDS011;6737;51.480;11.962;2022-09-12T08:18:40;14.45;;;10.15;;
13335;SDS011;6737;51.480;11.962;2022-09-12T08:21:08;11.77;;;9.75;;
13335;SDS011;6737;51.480;11.962;2022-09-12T08:23:41;13.65;;;9.02;;
13335;SDS011;6737;51.480;11.962;2022-09-12T08:26:08;16.08;;;8.52;;
13335;SDS011;6737;51.480;11.962;2022-09-12T08:28:35;12.98;;;8.50;;
13335;SDS011;6737;51.480;11.962;2022-09-12T08:31:02;13.57;;;7.80;;
13335;SDS011;6737;51.480;11.962;2022-09-12T08:33:30;9.70;;;7.65;;
13335;SDS011;6737;51.480;11.962;2022-09-12T08:36:17;9.27;;;6.90;;
13335;SDS011;6737;51.480;11.962;2022-09-12T08:38:46;11.27;;;7.10;;
13335;SDS011;6737;51.480;11.962;2022-09-12T08:46:09;10.50;;;7.50;;
13335;SDS011;6737;51.480;11.962;2022-09-12T08:48:45;8.02;;;7.22;;
13335;SDS011;6737;51.480;11.962;2022-09-12T08:51:13;9.35;;;7.55;;
13335;SDS011;6737;51.480;11.962;2022-09-12T08:53:42;11.48;;;8.23;;
13335;SDS011;6737;51.480;11.962;2022-09-12T08:56:11;11.18;;;8.07;;
13335;SDS011;6737;51.480;11.962;2022-09-12T08:58:41;11.55;;;8.50;;
13335;SDS011;6737;51.480;11.962;2022-09-12T09:01:10;9.73;;;6.90;;
13335;SDS011;6737;51.480;11.962;2022-09-12T09:11:59;8.70;;;6.13;;
13335;SDS011;6737;51.480;11.962;2022-09-12T09:17:45;8.40;;;5.82;;
13335;SDS011;6737;51.480;11.962;2022-09-12T09:25:23;4.50;;;3.40;;
13335;SDS011;6737;51.480;11.962;2022-09-12T09:28:01;6.15;;;4.60;;
13335;SDS011;6737;51.480;11.962;2022-09-12T09:30:32;7.18;;;5.03;;
13335;SDS011;6737;51.480;11.962;2022-09-12T09:33:00;5.60;;;4.70;;
13335;SDS011;6737;51.480;11.962;2022-09-12T09:35:45;7.30;;;5.07;;
13335;SDS011;6737;51.480;11.962;2022-09-12T09:43:55;4.63;;;3.20;;
13335;SDS011;6737;51.480;11.962;2022-09-12T09:46:22;3.20;;;2.90;;
13335;SDS011;6737;51.480;11.962;2022-09-12T09:48:48;3.15;;;1.80;;
13335;SDS011;6737;51.480;11.962;2022-09-12T09:51:16;4.85;;;2.20;;
13335;SDS011;6737;51.480;11.962;2022-09-12T09:53:52;2.28;;;1.90;;
13335;SDS011;6737;51.480;11.962;2022-09-12T09:56:32;4.43;;;1.83;;
13335;SDS011;6737;51.480;11.962;2022-09-12T10:01:54;5.07;;;3.28;;
13335;SDS011;6737;51.480;11.962;2022-09-12T10:04:54;5.85;;;3.60;;
13335;SDS011;6737;51.480;11.962;2022-09-12T10:07:21;6.15;;;3.47;;
13335;SDS011;6737;51.480;11.962;2022-09-12T10:12:42;4.95;;;3.63;;
13335;SDS011;6737;51.480;11.962;2022-09-12T10:15:16;4.28;;;2.97;;
13335;SDS011;6737;51.480;11.962;2022-09-12T10:17:53;3.67;;;2.90;;
13335;SDS011;6737;51.480;11.962;2022-09-12T10:20:40;6.22;;;2.80;;
13335;SDS011;6737;51.480;11.962;2022-09-12T10:25:53;2.92;;;2.60;;
13335;SDS011;6737;51.480;11.962;2022-09-12T10:28:23;3.25;;;2.63;;
13335;SDS011;6737;51.480;11.962;2022-09-12T10:30:57;2.80;;;2.30;;
13335;SDS011;6737;51.480;11.962;2022-09-12T10:33:25;2.60;;;2.20;;
13335;SDS011;6737;51.480;11.962;2022-09-12T10:35:52;3.13;;;2.33;;
13335;SDS011;6737;51.480;11.962;2022-09-12T10:38:23;2.53;;;1.90;;
13335;SDS011;6737;51.480;11.962;2022-09-12T10:41:08;2.55;;;2.25;;
13335;SDS011;6737;51.480;11.962;2022-09-12T10:43:36;2.55;;;2.05;;
13335;SDS011;6737;51.480;11.962;2022-09-12T10:46:36;2.30;;;1.90;;
13335;SDS011;6737;51.480;11.962;2022-09-12T10:51:47;2.10;;;1.90;;
13335;SDS011;6737;51.480;11.962;2022-09-12T10:54:15;2.17;;;1.88;;
13335;SDS011;6737;51.480;11.962;2022-09-12T10:59:41;1.90;;;1.80;;
13335;SDS011;6737;51.480;11.962;2022-09-12T11:04:47;2.10;;;1.88;;
13335;SDS011;6737;51.480;11.962;2022-09-12T11:07:31;3.70;;;1.85;;
13335;SDS011;6737;51.480;11.962;2022-09-12T11:13:00;2.05;;;1.70;;
13335;SDS011;6737;51.480;11.962;2022-09-12T11:18:31;2.10;;;1.90;;
13335;SDS011;6737;51.480;11.962;2022-09-12T11:43:06;2.90;;;1.67;;
13335;SDS011;6737;51.480;11.962;2022-09-12T11:45:41;1.60;;;1.50;;
13335;SDS011;6737;51.480;11.962;2022-09-12T11:48:14;1.85;;;1.60;;
13335;SDS011;6737;51.480;11.962;2022-09-12T11:50:49;2.13;;;1.60;;
13335;SDS011;6737;51.480;11.962;2022-09-12T11:53:23;3.72;;;1.60;;
13335;SDS011;6737;51.480;11.962;2022-09-12T11:58:45;1.83;;;1.65;;
13335;SDS011;6737;51.480;11.962;2022-09-12T12:01:27;3.58;;;1.60;;
13335;SDS011;6737;51.480;11.962;2022-09-12T12:04:00;3.90;;;1.60;;
13335;SDS011;6737;51.480;11.962;2022-09-12T12:06:46;2.42;;;1.63;;
13335;SDS011;6737;51.480;11.962;2022-09-12T12:09:16;3.72;;;1.60;;
13335;SDS011;6737;51.480;11.962;2022-09-12T12:11:43;1.63;;;1.50;;
13335;SDS011;6737;51.480;11.962;2022-09-12T12:14:35;1.75;;;1.55;;
13335;SDS011;6737;51.480;11.962;2022-09-12T12:17:03;1.50;;;1.40;;
13335;SDS011;6737;51.480;11.962;2022-09-12T12:19:36;1.60;;;1.50;;
13335;SDS011;6737;51.480;11.962;2022-09-12T12:22:04;1.70;;;1.60;;
13335;SDS011;6737;51.480;11.962;2022-09-12T12:24:32;3.00;;;1.80;;
13335;SDS011;6737;51.480;11.962;2022-09-12T12:26:59;2.42;;;1.60;;
13335;SDS011;6737;51.480;11.962;2022-09-12T12:34:32;1.98;;;1.60;;
13335;SDS011;6737;51.480;11.962;2022-09-12T12:44:56;2.15;;;1.70;;
13335;SDS011;6737;51.480;11.962;2022-09-12T12:47:27;2.30;;;1.55;;
13335;SDS011;6737;51.480;11.962;2022-09-12T12:50:07;3.55;;;1.75;;
13335;SDS011;6737;51.480;11.962;2022-09-12T12:53:00;2.35;;;1.70;;
13335;SDS011;6737;51.480;11.962;2022-09-12T12:55:37;2.20;;;1.60;;
13335;SDS011;6737;51.480;11.962;2022-09-12T13:03:39;2.13;;;1.45;;
13335;SDS011;6737;51.480;11.962;2022-09-12T13:06:20;2.63;;;1.40;;
13335;SDS011;6737;51.480;11.962;2022-09-12T13:09:01;3.67;;;1.38;;
13335;SDS011;6737;51.480;11.962;2022-09-12T13:11:36;3.60;;;1.55;;
13335;SDS011;6737;51.480;11.962;2022-09-12T13:14:04;1.50;;;1.40;;
13335;SDS011;6737;51.480;11.962;2022-09-12T13:16:37;2.47;;;1.60;;
13335;SDS011;6737;51.480;11.962;2022-09-12T13:19:18;1.83;;;1.60;;
13335;SDS011;6737;51.480;11.962;2022-09-12T13:21:58;2.55;;;1.70;;
13335;SDS011;6737;51.480;11.962;2022-09-12T13:24:30;1.75;;;1.50;;
13335;SDS011;6737;51.480;11.962;2022-09-12T13:26:56;2.13;;;1.58;;
13335;SDS011;6737;51.480;11.962;2022-09-12T13:29:23;1.80;;;1.50;;
13335;SDS011;6737;51.480;11.962;2022-09-12T13:31:50;2.55;;;1.50;;
13335;SDS011;6737;51.480;11.962;2022-09-12T13:34:26;2.97;;;1.45;;
13335;SDS011;6737;51.480;11.962;2022-09-12T13:39:47;2.88;;;1.30;;
13335;SDS011;6737;51.480;11.962;2022-09-12T13:44:59;1.60;;;1.30;;
13335;SDS011;6737;51.480;11.962;2022-09-12T13:47:40;1.50;;;1.30;;
13335;SDS011;6737;51.480;11.962;2022-09-12T13:50:12;1.60;;;1.27;;
13335;SDS011;6737;51.480;11.962;2022-09-12T13:52:46;3.03;;;1.58;;
13335;SDS011;6737;51.480;11.962;2022-09-12T13:55:34;1.50;;;1.30;;
13335;SDS011;6737;51.480;11.962;2022-09-12T13:58:04;3.95;;;1.38;;
13335;SDS011;6737;51.480;11.962;2022-09-12T14:00:39;1.40;;;1.30;;
13335;SDS011;6737;51.480;11.962;2022-09-12T14:06:17;1.73;;;1.40;;
13335;SDS011;6737;51.480;11.962;2022-09-12T14:08:45;1.50;;;1.40;;
13335;SDS011;6737;51.480;11.962;2022-09-12T14:11:17;1.73;;;1.33;;
13335;SDS011;6737;51.480;11.962;2022-09-12T14:13:49;2.55;;;1.50;;
13335;SDS011;6737;51.480;11.962;2022-09-12T14:16:17;1.60;;;1.50;;
13335;SDS011;6737;51.480;11.962;2022-09-12T14:18:45;3.60;;;1.40;;
13335;SDS011;6737;51.480;11.962;2022-09-12T14:21:30;1.75;;;1.40;;
13335;SDS011;6737;51.480;11.962;2022-09-12T14:23:58;6.93;;;1.58;;
13335;SDS011;6737;51.480;11.962;2022-09-12T14:26:26;2.72;;;1.42;;
13335;SDS011;6737;51.480;11.962;2022-09-12T14:28:56;4.15;;;1.40;;
13335;SDS011;6737;51.480;11.962;2022-09-12T14:31:24;1.80;;;1.40;;
13335;SDS011;6737;51.480;11.962;2022-09-12T14:34:08;2.30;;;1.50;;
13335;SDS011;6737;51.480;11.962;2022-09-12T14:36:41;1.98;;;1.35;;
13335;SDS011;6737;51.480;11.962;2022-09-12T14:41:43;2.78;;;1.50;;
13335;SDS011;6737;51.480;11.962;2022-09-12T14:44:23;3.78;;;1.50;;
13335;SDS011;6737;51.480;11.962;2022-09-12T14:46:51;1.70;;;1.52;;
13335;SDS011;6737;51.480;11.962;2022-09-12T14:49:24;1.75;;;1.40;;
13335;SDS011;6737;51.480;11.962;2022-09-12T14:51:59;3.38;;;1.60;;
13335;SDS011;6737;51.480;11.962;2022-09-12T14:56:55;1.65;;;1.40;;
13335;SDS011;6737;51.480;11.962;2022-09-12T14:59:46;1.67;;;1.58;;
13335;SDS011;6737;51.480;11.962;2022-09-12T15:02:18;2.53;;;1.50;;
13335;SDS011;6737;51.480;11.962;2022-09-12T15:04:47;2.88;;;1.58;;
13335;SDS011;6737;51.480;11.962;2022-09-12T15:07:59;1.67;;;1.40;;
13335;SDS011;6737;51.480;11.962;2022-09-12T15:15:30;1.77;;;1.50;;
13335;SDS011;6737;51.480;11.962;2022-09-12T15:17:56;1.60;;;1.50;;
13335;SDS011;6737;51.480;11.962;2022-09-12T15:20:22;3.08;;;1.77;;
13335;SDS011;6737;51.480;11.962;2022-09-12T15:22:49;2.45;;;1.60;;
13335;SDS011;6737;51.480;11.962;2022-09-12T15:25:15;1.65;;;1.50;;
13335;SDS011;6737;51.480;11.962;2022-09-12T15:27:42;2.13;;;1.90;;
13335;SDS011;6737;51.480;11.962;2022-09-12T15:30:09;2.90;;;1.75;;
13335;SDS011;6737;51.480;11.962;2022-09-12T15:32:37;1.63;;;1.48;;
13335;SDS011;6737;51.480;11.962;2022-09-12T15:35:23;3.25;;;1.77;;
13335;SDS011;6737;51.480;11.962;2022-09-12T15:37:49;2.97;;;1.60;;
13335;SDS011;6737;51.480;11.962;2022-09-12T15:40:15;2.10;;;1.50;;
13335;SDS011;6737;51.480;11.962;2022-09-12T15:42:42;1.58;;;1.48;;
13335;SDS011;6737;51.480;11.962;2022-09-12T15:45:29;3.72;;;1.70;;
13335;SDS011;6737;51.480;11.962;2022-09-12T15:47:56;3.65;;;1.58;;
13335;SDS011;6737;51.480;11.962;2022-09-12T15:50:24;3.42;;;1.58;;
13335;SDS011;6737;51.480;11.962;2022-09-12T15:52:49;2.00;;;1.60;;
13335;SDS011;6737;51.480;11.962;2022-09-12T15:55:19;5.88;;;1.75;;
13335;SDS011;6737;51.480;11.962;2022-09-12T15:57:47;2.00;;;1.73;;
13335;SDS011;6737;51.480;11.962;2022-09-12T16:00:13;1.90;;;1.58;;
13335;SDS011;6737;51.480;11.962;2022-09-12T16:02:42;3.15;;;1.80;;
13335;SDS011;6737;51.480;11.962;2022-09-12T16:05:18;3.13;;;1.70;;
13335;SDS011;6737;51.480;11.962;2022-09-12T16:07:49;2.40;;;1.70;;
13335;SDS011;6737;51.480;11.962;2022-09-12T16:10:19;4.10;;;1.63;;
13335;SDS011;6737;51.480;11.962;2022-09-12T16:12:48;3.80;;;1.75;;
13335;SDS011;6737;51.480;11.962;2022-09-12T16:15:16;1.88;;;1.45;;
13335;SDS011;6737;51.480;11.962;2022-09-12T16:17:43;2.00;;;1.80;;
13335;SDS011;6737;51.480;11.962;2022-09-12T16:20:10;4.20;;;1.58;;
13335;SDS011;6737;51.480;11.962;2022-09-12T16:22:36;3.58;;;1.77;;
13335;SDS011;6737;51.480;11.962;2022-09-12T16:25:02;2.35;;;1.70;;
13335;SDS011;6737;51.480;11.962;2022-09-12T16:27:29;2.08;;;1.83;;
13335;SDS011;6737;51.480;11.962;2022-09-12T16:29:55;2.13;;;1.70;;
13335;SDS011;6737;51.480;11.962;2022-09-12T16:32:20;3.22;;;1.63;;
13335;SDS011;6737;51.480;11.962;2022-09-12T16:34:46;2.40;;;1.70;;
13335;SDS011;6737;51.480;11.962;2022-09-12T16:37:12;1.90;;;1.50;;
13335;SDS011;6737;51.480;11.962;2022-09-12T16:39:38;2.95;;;1.90;;
13335;SDS011;6737;51.480;11.962;2022-09-12T16:42:03;3.20;;;1.63;;
13335;SDS011;6737;51.480;11.962;2022-09-12T16:44:29;1.80;;;1.52;;
13335;SDS011;6737;51.480;11.962;2022-09-12T16:46:55;3.20;;;1.50;;
13335;SDS011;6737;51.480;11.962;2022-09-12T16:49:20;4.53;;;1.80;;
13335;SDS011;6737;51.480;11.962;2022-09-12T16:51:46;3.10;;;1.80;;
13335;SDS011;6737;51.480;11.962;2022-09-12T16:54:13;1.92;;;1.60;;
13335;SDS011;6737;51.480;11.962;2022-09-12T16:56:40;2.63;;;1.70;;
13335;SDS011;6737;51.480;11.962;2022-09-12T16:59:06;3.33;;;1.95;;
13335;SDS011;6737;51.480;11.962;2022-09-12T17:01:34;2.67;;;1.60;;
13335;SDS011;6737;51.480;11.962;2022-09-12T17:04:00;2.38;;;1.77;;
13335;SDS011;6737;51.480;11.962;2022-09-12T17:06:26;4.93;;;2.03;;
13335;SDS011;6737;51.480;11.962;2022-09-12T17:08:54;3.72;;;2.00;;
13335;SDS011;6737;51.480;11.962;2022-09-12T17:11:43;3.38;;;1.70;;
13335;SDS011;6737;51.480;11.962;2022-09-12T17:14:11;2.70;;;1.80;;
13335;SDS011;6737;51.480;11.962;2022-09-12T17:16:41;1.95;;;1.80;;
13335;SDS011;6737;51.480;11.962;2022-09-12T17:19:11;4.10;;;1.70;;
13335;SDS011;6737;51.480;11.962;2022-09-12T17:21:40;2.08;;;1.70;;
13335;SDS011;6737;51.480;11.962;2022-09-12T17:24:05;1.98;;;1.75;;
13335;SDS011;6737;51.480;11.962;2022-09-12T17:26:31;2.78;;;1.85;;
13335;SDS011;6737;51.480;11.962;2022-09-12T17:28:57;2.03;;;1.77;;
13335;SDS011;6737;51.480;11.962;2022-09-12T17:31:23;3.15;;;1.95;;